• Join FlightAware (Why Join?)
  • Login
  • US Flag 
02:59AM EDT


 

Airport Tracker/Info


-or-


 

Live Flight TrackerFlight Track Log ✈ N47NG ✈ 10-Jun-2014 ✈ KSYR - KOXC

Flight Track Log - Related Links

Times and Time Zones

All times are in EDT time to prevent confusion due to time zone crossing. See the N47NG flight status page for this flight to view local times or setup timezone preferences in your user account.

Time Position Orientation Groundspeed Altitude Reporting Facility
EDT Latitude Longitude Course Direction KTS MPH feet Rate Location/Type
03:06PM 43.1094 -76.0958 86° East 84 97 1,000  Level Boston Center
03:07PM 43.1111 -76.0658 86° East 140 161 1,700 1,260 Climbing Boston Center
03:08PM 43.0975 -76.0142 110° East 152 175 3,200 1,500 Climbing Boston Center
03:09PM 43.0619 -75.9583 131° Southeast 174 200 4,900 1,500 Climbing Boston Center
03:10PM 43.0492 -75.9008 107° East 169 194 6,400 1,380 Climbing Boston Center
03:11PM 43.0117 -75.8611 142° Southeast 168 193 7,800 1,380 Climbing Boston Center
03:12PM 42.9753 -75.8194 140° Southeast 172 198 9,300 1,020 Climbing Boston Center
03:13PM 42.9333 -75.7711 140° Southeast 193 222 10,000 300 Climbing Boston Center
03:14PM 42.8847 -75.7150 140° Southeast 227 261 10,000  Level Boston Center
03:15PM 42.8319 -75.6544 140° Southeast 246 283 10,000 960 Level Boston Center
03:16PM 42.7756 -75.5903 140° Southeast 216 249 12,100 1,620 Climbing Boston Center
03:17PM 42.7342 -75.5433 140° Southeast 197 227 13,400 1,200 Climbing Boston Center
03:18PM 42.6922 -75.4953 140° Southeast 196 226 14,600 1,080 Climbing Boston Center
03:19PM 42.6597 -75.4286 124° Southeast 206 237 15,600 1,080 Climbing Boston Center
03:20PM 42.6292 -75.3625 122° Southeast 208 239 16,800 660 Climbing Boston Center
03:21PM 42.5950 -75.2925 124° Southeast 215 247 17,000 60 Climbing Boston Center
03:22PM 42.5561 -75.2119 123° Southeast 244 281 17,000  Level Boston Center
03:23PM 42.5075 -75.1086 123° Southeast 266 306 17,000  Level Boston Center
03:24PM 42.4669 -75.0233 123° Southeast 266 306 17,000  Level Boston Center
03:25PM 42.4253 -74.9358 123° Southeast 272 313 17,000  Level Boston Center
03:26PM 42.3842 -74.8503 123° Southeast 273 314 17,000  Level Boston Center
03:27PM 42.3367 -74.7533 124° Southeast 275 316 17,000 -240 Level Boston Center
03:28PM 42.2986 -74.6736 123° Southeast 281 323 16,500 -600 Descending Boston Center
03:29PM 42.2542 -74.5811 123° Southeast 291 335 15,900 -660 Descending Boston Center
03:30PM 42.1994 -74.4694 123° Southeast 296 341 15,200 -480 Descending Boston Center
03:31PM 42.1553 -74.3786 123° Southeast 292 336 15,000 -120 Descending Boston Center
03:32PM 42.1094 -74.2836 123° Southeast 284 327 15,000  Level Boston Center
03:33PM 42.0656 -74.1975 124° Southeast 280 322 15,000  Level Boston Center
03:34PM 42.0236 -74.1106 123° Southeast 279 321 15,000  Level Boston Center
03:35PM 41.9783 -74.0175 123° Southeast 276 318 15,000 -240 Level Boston Center
03:36PM 41.9367 -73.9333 124° Southeast 274 315 14,600 -840 Descending Boston Center
03:37PM 41.8914 -73.8442 124° Southeast 283 326 13,300 -1,200 Descending Boston Center
03:39PM 41.8289 -73.7719 139° Southeast 280 322 12,100 -1,200 Descending Boston Center
03:40PM 41.7694 -73.7119 143° Southeast 271 312 10,800 -1,260 Descending Boston Center
03:41PM 41.7114 -73.6572 145° Southeast 258 297 9,600 -1,260 Descending Boston Center
03:42PM 41.6531 -73.5989 143° Southeast 247 284 8,300 -1,200 Descending Boston Center
03:43PM 41.5992 -73.5464 144° Southeast 242 278 7,200 -1,080 Descending Boston Center
03:44PM 41.5461 -73.4961 145° Southeast 236 272 6,100 -1,200 Descending Boston Center
03:45PM 41.4897 -73.4397 143° Southeast 236 272 4,900 -1,080 Descending Boston Center
03:46PM 41.4361 -73.3897 145° Southeast 235 270 3,900 -540 Descending Boston Center
03:47PM 41.3842 -73.3394 144° Southeast 234 269 3,800 -720 Descending Boston Center
03:48PM 41.3344 -73.2931 145° Southeast 232 267 2,500 -720 Descending Boston Center
03:49PM 41.3114 -73.2311 116° Southeast 203 234 2,400 -60 Descending Boston Center
03:50PM 41.2997 -73.1725 105° East 185 213 2,400  Level Boston Center
03:51PM 41.3172 -73.1164 67° East 175 201 2,400  Level Boston Center
03:52PM 41.3611 -73.1069 North 166 191 2,400 -300 Level Boston Center
03:53PM 41.4072 -73.1178 350° North 150 173 1,900 -600 Descending Boston Center
03:54PM 41.4378 -73.1253 350° North 130 150 1,300 -540 Descending Boston Center
03:55PM 41.4667 -73.1308 352° North 115 132 800 -480 Descending Boston Center